Data for 01/06/2007

Time Sea-Level Adjusted Pressure Absolute Pressure Temperature Relative Humidity Dew Point   
(mb) (inHg) (mb) (inHg) (C) (F) (%) (C) (F)
00:05 1014 29.94 844 24.92 -3.1 26.3 42 -14.4 6.1
00:10 1014 29.94 843 24.89 -3 26.7 41 -14.4 6.2
00:15 1014 29.94 843 24.89 -2.7 27.2 40 -14.4 6.1
00:20 1014 29.94 843 24.89 -2.5 27.5 40 -14.2 6.4
00:25 1014 29.94 843 24.89 -2.5 27.5 39 -14.6 5.7
00:30 1014 29.94 843 24.89 -2.5 27.5 40 -14.4 6.1
00:35 1014 29.94 843 24.89 -2.5 27.5 40 -14.5 5.9
00:40 1014 29.94 843 24.89 -2.6 27.3 40 -14.3 6.3
00:45 1013 29.91 843 24.89 -2.8 27 41 -14.3 6.3
00:50 1014 29.94 843 24.89 -2.8 26.9 41 -14.2 6.4
00:55 1013 29.91 843 24.89 -3.1 26.5 42 -14.3 6.3
01:00 1014 29.94 843 24.89 -3.2 26.2 43 -14.3 6.3
01:05 1014 29.94 843 24.89 -3 26.5 42 -14.1 6.6
01:10 1013 29.91 843 24.89 -2.9 26.7 43 -13.9 6.9
01:15 1013 29.91 843 24.89 -3.2 26.3 48 -12.8 9
01:20 1013 29.91 842 24.86 -3.7 25.3 48 -13.2 8.2
01:25 1013 29.91 842 24.86 -3.9 25 51 -12.7 9.1
01:30 1013 29.91 842 24.86 -4 24.9 48 -13.4 7.9
01:35 1013 29.91 842 24.86 -3.9 25 48 -13.4 7.8
01:40 1013 29.91 842 24.86 -3.9 25 51 -12.6 9.3
01:45 1013 29.91 842 24.86 -4.5 23.9 52 -13 8.6
01:50 1013 29.91 842 24.86 -4.8 23.4 53 -13 8.6
01:55 1012 29.88 842 24.86 -4.9 23.2 51 -13.5 7.7
02:00 1012 29.88 842 24.86 -4.9 23.3 52 -13.4 7.9
02:05 1012 29.88 842 24.86 -4.9 23.2 51 -13.5 7.6
02:10 1012 29.88 841 24.83 -4.9 23.2 50 -13.7 7.4
02:15 1012 29.88 842 24.86 -4.9 23.2 50 -13.8 7.2
02:20 1012 29.88 842 24.86 -4.8 23.4 50 -13.8 7.2
02:25 1012 29.88 842 24.86 -4.8 23.4 50 -13.7 7.4
02:30 1012 29.88 841 24.83 -4.7 23.5 49 -13.8 7.1
02:35 1012 29.88 841 24.83 -4.6 23.7 49 -13.8 7.1
02:40 1012 29.88 841 24.83 -4.4 24 47 -14.1 6.7
02:45 1012 29.88 841 24.83 -4.2 24.5 48 -13.5 7.6
02:50 1012 29.88 841 24.83 -4.2 24.4 49 -13.3 8.1
02:55 1012 29.88 841 24.83 -4.5 23.8 54 -12.5 9.5
03:00 1012 29.88 841 24.83 -4.7 23.6 55 -12.4 9.7
03:05 1012 29.88 841 24.83 -4.6 23.7 48 -14.1 6.5
03:10 1012 29.88 841 24.83 -3.9 25 48 -13.5 7.8
03:15 1012 29.88 841 24.83 -3.5 25.7 51 -12.3 9.8
03:20 1012 29.88 841 24.83 -3.4 25.9 50 -12.4 9.6
03:25 1012 29.88 841 24.83 -3.2 26.2 50 -12.1 10.2
03:30 1012 29.88 841 24.83 -3.1 26.4 51 -11.8 10.8
03:35 1012 29.88 841 24.83 -3.1 26.4 53 -11.3 11.6
03:40 1012 29.88 841 24.83 -2.4 27.7 49 -11.6 11.1
03:45 1012 29.88 841 24.83 -2 28.5 48 -11.7 10.9
03:50 1012 29.88 841 24.83 -1.8 28.8 48 -11.5 11.3
03:55 1011 29.85 841 24.83 -1.7 29 47 -11.5 11.3
04:00 1011 29.85 841 24.83 -1.9 28.6 49 -11.3 11.7
04:05 1011 29.85 840 24.81 -2 28.4 49 -11.4 11.5
04:10 1011 29.85 840 24.81 -1.9 28.5 48 -11.6 11.2
04:15 1011 29.85 840 24.81 -1.8 28.8 47 -11.8 10.8
04:20 1011 29.85 840 24.81 -1.7 29 46 -11.9 10.5
04:25 1011 29.85 840 24.81 -1.4 29.5 46 -11.7 10.9
04:30 1011 29.85 840 24.81 -1.3 29.6 45 -11.8 10.8
04:35 1011 29.85 840 24.81 -1.1 30 44 -11.9 10.6
04:40 1011 29.85 840 24.81 -1.2 29.9 46 -11.5 11.4
04:45 1010 29.83 840 24.81 -1.4 29.4 46 -11.7 10.9
04:50 1010 29.83 839 24.78 -1.7 29 48 -11.2 11.8
04:55 1010 29.83 839 24.78 -2 28.4 50 -11.1 12.1
05:00 1010 29.83 839 24.78 -2.1 28.2 49 -11.5 11.3
05:05 1010 29.83 839 24.78 -1.9 28.5 49 -11.3 11.7
05:10 1010 29.83 839 24.78 -2 28.3 49 -11.3 11.7
05:15 1010 29.83 839 24.78 -2.2 28.1 50 -11.1 11.9
05:20 1010 29.83 839 24.78 -2.3 27.8 52 -10.8 12.5
05:25 1009 29.8 839 24.78 -2.2 28 51 -10.9 12.3
05:30 1009 29.8 838 24.75 -1.7 28.9 51 -10.5 13
05:35 1009 29.8 838 24.75 -1.8 28.8 50 -10.8 12.5
05:40 1009 29.8 838 24.75 -1.8 28.8 50 -10.8 12.5
05:45 1009 29.8 838 24.75 -1.9 28.6 49 -11.3 11.7
05:50 1009 29.8 838 24.75 -1.9 28.7 48 -11.5 11.3
05:55 1009 29.8 838 24.75 -2 28.4 48 -11.6 11.1
06:00 1009 29.8 838 24.75 -2 28.4 49 -11.4 11.5
06:05 1008 29.77 838 24.75 -1.9 28.6 48 -11.5 11.2
06:10 1008 29.77 837 24.72 -1.6 29.1 50 -10.8 12.6
06:15 1008 29.77 837 24.72 -1.5 29.4 51 -10.5 13.2
06:20 1008 29.77 837 24.72 -1.4 29.5 52 -10.1 13.8
06:25 1008 29.77 837 24.72 -1.4 29.5 51 -10.2 13.6
06:30 1008 29.77 837 24.72 -1.4 29.5 51 -10.3 13.4
06:35 1008 29.77 837 24.72 -1.3 29.6 52 -10.1 13.9
06:40 1008 29.77 837 24.72 -1.2 29.8 49 -10.5 13.1
06:45 1008 29.77 837 24.72 -1.2 29.8 50 -10.4 13.2
06:50 1008 29.77 837 24.72 -1.2 29.8 48 -10.9 12.5
06:55 1008 29.77 837 24.72 -1.1 30 49 -10.6 12.8
07:00 1008 29.77 837 24.72 -1.2 29.8 48 -10.8 12.5
07:05 1008 29.77 837 24.72 -1.1 30.1 49 -10.6 12.9
07:10 1008 29.77 837 24.72 -0.6 30.8 46 -10.8 12.5
07:15 1007 29.74 837 24.72 -0.8 30.6 46 -10.9 12.4
07:20 1007 29.74 836 24.69 -0.7 30.7 47 -10.6 12.9
07:25 1007 29.74 836 24.69 -1 30.2 47 -10.9 12.3
07:30 1007 29.74 836 24.69 -1.1 30.1 48 -10.7 12.7
07:35 1007 29.74 836 24.69 -0.9 30.3 45 -11.5 11.4
07:40 1007 29.74 837 24.72 -0.7 30.7 46 -11 12.2
07:45 1007 29.74 837 24.72 -0.9 30.3 47 -10.7 12.7
07:50 1007 29.74 836 24.69 -0.9 30.3 47 -10.9 12.4
07:55 1007 29.74 836 24.69 -0.9 30.3 47 -11 12.2
08:00 1007 29.74 836 24.69 -0.8 30.5 45 -11.3 11.6
08:05 1007 29.74 836 24.69 -0.8 30.5 46 -11.1 12
08:10 1007 29.74 836 24.69 -1.1 30 48 -10.8 12.6
08:15 1007 29.74 836 24.69 -1.4 29.5 49 -10.7 12.8
08:20 1007 29.74 836 24.69 -1.5 29.3 50 -10.5 13
08:25 1007 29.74 836 24.69 -1.4 29.4 49 -10.8 12.5
08:30 1007 29.74 836 24.69 -1.4 29.5 50 -10.5 13.2
08:35 1007 29.74 836 24.69 -1.6 29.2 49 -10.9 12.5
08:40 1007 29.74 836 24.69 -1.7 29 50 -10.8 12.5
08:45 1006 29.71 836 24.69 -1.7 28.9 50 -10.9 12.5
08:50 1006 29.71 835 24.66 -1.8 28.8 51 -10.7 12.8
08:55 1006 29.71 835 24.66 -1.5 29.3 47 -11.4 11.5
09:00 1006 29.71 836 24.69 -1.4 29.5 48 -11.1 12
09:05 1006 29.71 835 24.66 -1.3 29.7 47 -11.3 11.6
09:10 1006 29.71 836 24.69 -1.3 29.7 48 -11 12.1
09:15 1007 29.74 836 24.69 -1.3 29.7 46 -11.6 11.1
09:20 1007 29.74 836 24.69 -1.3 29.6 46 -11.6 11
09:25 1007 29.74 836 24.69 -1.3 29.7 45 -11.9 10.7
09:30 1007 29.74 836 24.69 -1.1 30 44 -11.8 10.8
09:35 1007 29.74 836 24.69 -1 30.2 46 -11.4 11.5
09:40 1007 29.74 836 24.69 -1.2 29.8 46 -11.4 11.4
09:45 1007 29.74 836 24.69 -1.4 29.5 47 -11.4 11.4
09:50 1007 29.74 837 24.72 -1.4 29.5 47 -11.3 11.7
09:55 1008 29.77 837 24.72 -1.3 29.7 48 -11 12.3
10:00 1008 29.77 837 24.72 -1.2 29.9 48 -10.9 12.4
10:05 1008 29.77 837 24.72 -1.1 30 50 -10.2 13.7
10:10 1008 29.77 837 24.72 -1.2 29.9 53 -9.7 14.6
10:15 1008 29.77 837 24.72 -1.5 29.4 55 -9.4 15
10:20 1008 29.77 837 24.72 -1.8 28.8 57 -9.2 15.4
10:25 1008 29.77 837 24.72 -1.7 29 55 -9.7 14.6
10:30 1008 29.77 837 24.72 -1.4 29.5 48 -11 12.1
10:35 1008 29.77 838 24.75 -1.1 29.9 49 -10.7 12.8
10:40 1008 29.77 838 24.75 -1.1 30.1 49 -10.5 13.1
10:45 1008 29.77 838 24.75 -1.1 30 48 -10.6 12.8
10:50 1009 29.8 838 24.75 -1.3 29.6 49 -10.7 12.7
10:55 1009 29.8 838 24.75 -1.4 29.5 49 -10.7 12.7
11:00 1009 29.8 838 24.75 -1.4 29.4 50 -10.6 12.9
11:05 1009 29.8 838 24.75 -1.4 29.4 49 -10.7 12.7
11:10 1008 29.77 838 24.75 -1.4 29.4 48 -11 12.3
11:15 1008 29.77 838 24.75 -1.4 29.5 47 -11.3 11.7
11:20 1009 29.8 838 24.75 -1.3 29.7 49 -10.7 12.8
11:25 1009 29.8 838 24.75 -1.6 29.2 56 -9.3 15.3
11:30 1009 29.8 838 24.75 -1.7 29 50 -10.7 12.7
11:35 1009 29.8 838 24.75 -1.3 29.6 48 -10.9 12.5
11:40 1008 29.77 838 24.75 -1.2 29.8 47 -11.1 12
11:45 1008 29.77 838 24.75 -1.2 29.9 47 -11.1 12.1
11:50 1008 29.77 838 24.75 -1.1 29.9 47 -11.2 11.9
11:55 1008 29.77 837 24.72 -1 30.2 46 -11.1 12
12:00 1008 29.77 837 24.72 -0.7 30.7 46 -11 12.3
12:05 1008 29.77 837 24.72 -0.7 30.8 46 -11 12.2
12:10 1008 29.77 838 24.75 -0.7 30.8 43 -11.9 10.6
12:15 1009 29.8 838 24.75 -0.7 30.7 46 -10.9 12.4
12:20 1009 29.8 838 24.75 -0.7 30.7 47 -10.7 12.8
12:25 1009 29.8 838 24.75 -1.1 30.1 49 -10.6 13
12:30 1009 29.8 838 24.75 -1.2 29.8 51 -10.1 13.8
12:35 1009 29.8 838 24.75 -1.3 29.7 61 -7.8 18
12:40 1009 29.8 838 24.75 -1.6 29.2 63 -7.8 18
12:45 1009 29.8 839 24.78 -1.6 29.2 61 -8.2 17.3
12:50 1009 29.8 839 24.78 -1.3 29.6 51 -10.3 13.4
12:55 1009 29.8 839 24.78 -1.1 30 49 -10.6 12.8
13:00 1009 29.8 839 24.78 -0.9 30.3 39 -13.1 8.4
13:05 1010 29.83 839 24.78 -0.6 31 36 -13.7 7.3
13:10 1010 29.83 839 24.78 -0.2 31.6 39 -12.6 9.3
13:15 1010 29.83 839 24.78 -0.4 31.3 40 -12.5 9.5
13:20 1010 29.83 839 24.78 -0.5 31.1 39 -12.7 9.2
13:25 1010 29.83 839 24.78 -0.5 31.1 38 -13.1 8.5
13:30 1010 29.83 840 24.81 -0.6 30.9 37 -13.7 7.3
13:35 1011 29.85 840 24.81 -0.7 30.8 39 -13.1 8.5
13:40 1011 29.85 840 24.81 -0.9 30.4 41 -12.7 9.2
13:45 1011 29.85 840 24.81 -1 30.2 42 -12.4 9.7
13:50 1011 29.85 840 24.81 -1.2 29.9 43 -12.1 10.1
13:55 1011 29.85 840 24.81 -1.3 29.7 45 -11.8 10.8
14:00 1011 29.85 841 24.83 -1.4 29.5 46 -11.6 11.1
14:05 1012 29.88 841 24.83 -1.4 29.4 45 -11.8 10.7
14:10 1012 29.88 841 24.83 -1.5 29.2 46 -11.8 10.7
14:15 1012 29.88 841 24.83 -1.6 29.1 46 -11.7 11
14:20 1012 29.88 841 24.83 -1.7 28.9 46 -11.9 10.5
14:25 1012 29.88 841 24.83 -1.7 28.9 45 -12.1 10.3
14:30 1012 29.88 841 24.83 -1.7 28.9 44 -12.5 9.5
14:35 1012 29.88 842 24.86 -1.7 28.9 42 -13.1 8.5
14:40 1012 29.88 842 24.86 -1.7 28.9 41 -13.4 7.9
14:45 1013 29.91 842 24.86 -1.8 28.8 42 -13 8.6
14:50 1013 29.91 842 24.86 -1.8 28.8 42 -13.1 8.4
14:55 1013 29.91 842 24.86 -1.8 28.7 43 -12.9 8.7
15:00 1013 29.91 842 24.86 -1.8 28.7 44 -12.7 9.2
15:05 1013 29.91 843 24.89 -1.9 28.6 43 -13 8.6
15:10 1014 29.94 843 24.89 -1.9 28.7 42 -13.1 8.4
15:15 1014 29.94 843 24.89 -1.9 28.7 42 -13.1 8.4
15:20 1014 29.94 843 24.89 -1.9 28.6 44 -12.6 9.3
15:25 1014 29.94 843 24.89 -1.9 28.6 43 -13 8.7
15:30 1014 29.94 843 24.89 -1.9 28.6 43 -12.9 8.7
15:35 1014 29.94 843 24.89 -1.9 28.6 42 -13.2 8.3
15:40 1014 29.94 844 24.92 -1.9 28.6 43 -12.8 8.9
15:45 1015 29.97 844 24.92 -1.9 28.6 43 -12.9 8.8
15:50 1015 29.97 844 24.92 -1.9 28.6 43 -12.9 8.9
15:55 1015 29.97 844 24.92 -2 28.5 45 -12.4 9.6
16:00 1015 29.97 844 24.92 -1.9 28.5 44 -12.6 9.4
16:05 1015 29.97 844 24.92 -2 28.5 44 -12.8 9
16:10 1015 29.97 844 24.92 -2 28.4 44 -12.7 9.1
16:15 1015 29.97 845 24.95 -2 28.5 43 -12.8 8.9
16:20 1016 30 845 24.95 -2 28.4 44 -12.8 9
16:25 1016 30 845 24.95 -2.1 28.2 44 -12.8 8.9
16:30 1016 30 845 24.95 -2.2 28.1 44 -12.8 9
16:35 1016 30 845 24.95 -2.3 27.9 45 -12.8 8.9
16:40 1016 30 845 24.95 -2.3 27.9 44 -12.9 8.9
16:45 1016 30 845 24.95 -2.3 27.9 44 -12.9 8.7
16:50 1016 30 845 24.95 -2.3 27.8 43 -13.4 7.9
16:55 1016 30 845 24.95 -2.4 27.7 42 -13.7 7.3
17:00 1016 30 845 24.95 -2.4 27.7 43 -13.5 7.8
17:05 1016 30 845 24.95 -2.4 27.6 41 -14.1 6.7
17:10 1016 30 846 24.98 -2.4 27.6 40 -14.1 6.5
17:15 1016 30 846 24.98 -2.5 27.6 41 -14 6.7
17:20 1017 30.03 846 24.98 -2.5 27.4 41 -14 6.8
17:25 1017 30.03 846 24.98 -2.6 27.3 42 -13.9 6.9
17:30 1017 30.03 846 24.98 -2.7 27.2 41 -14.1 6.7
17:35 1017 30.03 846 24.98 -2.8 27 42 -14.1 6.6
17:40 1017 30.03 846 24.98 -2.9 26.8 42 -14.1 6.6
17:45 1017 30.03 846 24.98 -3 26.6 42 -14.3 6.3
17:50 1017 30.03 847 25.01 -3 26.5 42 -14.3 6.2
17:55 1018 30.06 847 25.01 -3.1 26.4 42 -14.2 6.4
18:00 1018 30.06 847 25.01 -3.2 26.2 42 -14.5 5.9
18:05 1018 30.06 847 25.01 -3.2 26.2 41 -14.8 5.3
18:10 1018 30.06 847 25.01 -3.2 26.2 41 -14.8 5.3
18:15 1018 30.06 847 25.01 -3.3 26.1 41 -14.8 5.4
18:20 1018 30.06 848 25.04 -3.3 26.1 41 -14.8 5.3
18:25 1019 30.09 848 25.04 -3.3 26.1 41 -14.7 5.5
18:30 1019 30.09 848 25.04 -3.4 25.9 41 -15 5
18:35 1019 30.09 848 25.04 -3.5 25.8 41 -14.8 5.4
18:40 1019 30.09 848 25.04 -3.5 25.7 42 -14.6 5.7
18:45 1019 30.09 848 25.04 -3.6 25.6 44 -14.3 6.3
18:50 1019 30.09 848 25.04 -3.7 25.4 45 -14.1 6.7
18:55 1019 30.09 849 25.07 -3.8 25.2 46 -13.9 7
19:00 1019 30.09 849 25.07 -3.8 25.1 46 -13.9 6.9
19:05 1020 30.12 849 25.07 -3.9 25 47 -13.7 7.4
19:10 1020 30.12 849 25.07 -4 24.8 48 -13.5 7.7
19:15 1020 30.12 849 25.07 -4.1 24.6 48 -13.6 7.6
19:20 1020 30.12 849 25.07 -4.3 24.2 48 -13.8 7.2
19:25 1020 30.12 849 25.07 -4.4 24.1 48 -13.8 7.1
19:30 1020 30.12 849 25.07 -4.4 24.1 49 -13.6 7.6
19:35 1020 30.12 850 25.1 -4.4 24 49 -13.6 7.5
19:40 1020 30.12 850 25.1 -4.5 23.9 50 -13.4 7.9
19:45 1021 30.15 850 25.1 -4.5 24 49 -13.6 7.4
19:50 1021 30.15 850 25.1 -4.5 23.9 48 -13.8 7.1
19:55 1021 30.15 850 25.1 -4.5 23.8 49 -13.8 7.2
20:00 1021 30.15 850 25.1 -4.6 23.6 49 -13.9 7
20:05 1021 30.15 850 25.1 -4.7 23.5 49 -13.9 7
20:10 1021 30.15 850 25.1 -4.7 23.5 50 -13.6 7.6
20:15 1021 30.15 850 25.1 -4.9 23.2 51 -13.5 7.7
20:20 1021 30.15 851 25.13 -5 23 52 -13.4 7.8
20:25 1021 30.15 851 25.13 -5.1 22.8 52 -13.4 7.9
20:30 1022 30.18 851 25.13 -5.2 22.7 52 -13.5 7.8
20:35 1022 30.18 851 25.13 -5.2 22.7 52 -13.6 7.6
20:40 1022 30.18 851 25.13 -5.2 22.7 52 -13.5 7.6
20:45 1022 30.18 851 25.13 -5.2 22.6 52 -13.6 7.5
20:50 1022 30.18 851 25.13 -5.2 22.6 51 -13.8 7.2
20:55 1022 30.18 851 25.13 -5.2 22.7 49 -14.3 6.3
21:00 1022 30.18 851 25.13 -5.1 22.8 49 -14.3 6.2
21:05 1022 30.18 851 25.13 -5.1 22.8 49 -14.4 6.2
21:10 1022 30.18 851 25.13 -5.3 22.5 50 -14.1 6.7
21:15 1022 30.18 851 25.13 -5.6 22 51 -14.2 6.5
21:20 1022 30.18 851 25.13 -5.8 21.5 50 -14.6 5.8
21:25 1022 30.18 851 25.13 -5.6 21.9 49 -14.7 5.6
21:30 1022 30.18 852 25.16 -5.4 22.3 49 -14.5 5.8
21:35 1022 30.18 852 25.16 -5.3 22.4 49 -14.6 5.8
21:40 1023 30.21 852 25.16 -5.3 22.4 50 -14.1 6.7
21:45 1023 30.21 852 25.16 -5.7 21.8 51 -14.2 6.5
21:50 1023 30.21 852 25.16 -5.8 21.5 50 -14.6 5.8
21:55 1023 30.21 852 25.16 -5.7 21.7 49 -14.8 5.3
22:00 1023 30.21 852 25.16 -5.7 21.8 49 -14.9 5.2
22:05 1023 30.21 852 25.16 -5.6 21.9 48 -14.9 5.1
22:10 1023 30.21 852 25.16 -5.6 22 47 -15.1 4.8
22:15 1023 30.21 852 25.16 -5.6 22 48 -14.9 5.1
22:20 1023 30.21 852 25.16 -5.7 21.8 48 -14.9 5.1
22:25 1023 30.21 852 25.16 -5.6 21.8 49 -14.8 5.4
22:30 1023 30.21 852 25.16 -5.7 21.8 49 -14.7 5.5
22:35 1023 30.21 853 25.19 -5.8 21.5 49 -14.8 5.3
22:40 1023 30.21 853 25.19 -5.9 21.3 49 -15 5
22:45 1023 30.21 853 25.19 -5.9 21.3 50 -14.9 5.2
22:50 1024 30.24 853 25.19 -6 21.1 50 -14.9 5.2
22:55 1024 30.24 853 25.19 -6.1 21 50 -15 5
23:00 1024 30.24 853 25.19 -6.1 20.9 49 -15.2 4.7
23:05 1024 30.24 853 25.19 -6.2 20.8 50 -15.2 4.7
23:10 1024 30.24 853 25.19 -6.5 20.4 51 -15.1 4.8
23:15 1024 30.24 853 25.19 -6.6 20.1 50 -15.3 4.5
23:20 1024 30.24 853 25.19 -6.6 20.1 50 -15.4 4.3
23:25 1024 30.24 853 25.19 -6.5 20.3 49 -15.5 4.1
23:30 1024 30.24 853 25.19 -6.4 20.4 48 -15.6 3.9
23:35 1024 30.24 853 25.19 -6.5 20.4 49 -15.6 4
23:40 1024 30.24 853 25.19 -6.6 20.1 49 -15.8 3.6
23:45 1024 30.24 853 25.19 -6.7 19.9 49 -15.6 3.8
23:50 1024 30.24 853 25.19 -6.8 19.7 50 -15.6 3.9
23:55 1024 30.24 853 25.19 -7 19.5 51 -15.5 4
24:00 1024 30.24 853 25.19 -7.1 19.2 51 -15.7 3.7